Accueil
METAR-TAF:

METAR-TAF

Aéroports :

Londres, Angleterre

Aéroport de Londres-City

latitude: 51-30N, longitude: 000-03E, altitude: 5 m

Observation

Le bulletin a été fait il y a 31 minutes, à 22:20 UTC
Vent 6 kt de est
Température 15°C
Humidité 88%
Pression 1015 hPa
Visibilité: 5000 m
brume sèche

METAR: EGLC 212220Z AUTO 09006KT 5000 HZ NCD 15/13 Q1015

Heure: 23:51 (22:51 UTC)

Prévision

Le bulletin a été fait il y a 14 heures et 47 minutes, à 08:04 UTC
Prévision valable du 21 à 09 UTC au 21 à 13 UTC
Vent 8 kt de est/sud-est
Visibilité 10 km ou plus
Quelques nuages à une hauteur de 4500 ft
Probabilité 40% :
Temporairement
du 21 à 09 UTC au 21 à 11 UTC
Visibilité: 9000 m
Probabilité 30% :
Temporairement
du 21 à 11 UTC au 21 à 13 UTC
Visibilité: 8000 m
faibles averses de pluie

TAF: EGLC 210804Z 2109/2113 11008KT 9999 FEW045 PROB40 TEMPO 2109/2111 9000 PROB30 TEMPO 2111/2113 8000 -SHRA

Observations et prévisions météorologiques de plus de 4000 aéroports (messages METAR et TAF).

Les stations disponibles sont représentées par des disques jaunes et rouges sur la carte.

Passer la souris dessus pour voir le nom de la station.

Cliquer dessus pour voir les observations et prévisions météorologiques.

Pour changer de carte: cliquez sur les boutons verts avec une croix noire pour zoomer, sur le bouton vert avec un tiret pour effectuer un zoom arrière, ou sur les flèches vertes pour les cartes adjacentes.


METAR-TAF: